Time;durP1;ratioP1;P1;durP2;ratioP2;P2;SDS_P1;SDS_P2;PMS_P1;PMS_P2;Temp;Humidity;BMP_temperature;BMP_pressure;BME280_temperature;BME280_humidity;BME280_pressure;Samples;Min_cycle;Max_cycle;Signal;HPM_P1;HPM_P2
2022/02/09 00:06:42;;;;;;;6.55;4.20;;;10.80;78.10;;;;;;5086494;28;20078;-81
2022/02/09 00:09:08;;;;;;;11.23;6.50;;;10.70;78.10;;;;;;5090116;28;20371;-83
2022/02/09 00:11:42;;;;;;;6.50;4.57;;;10.70;78.10;;;;;;5082834;28;20046;-82
2022/02/09 00:17:12;;;;;;;8.05;5.13;;;10.70;78.10;;;;;;5073899;28;20032;-83
2022/02/09 00:22:34;;;;;;;4.60;3.80;;;10.70;78.10;;;;;;5090867;28;20024;-83
2022/02/09 00:25:33;;;;;;;;;;;10.70;78.10;;;;;;5088682;28;20131;-83
2022/02/09 00:28:23;;;;;;;5.50;3.75;;;10.70;78.10;;;;;;5088108;28;19924;-83
2022/02/09 00:36:22;;;;;;;4.85;3.03;;;10.60;78.20;;;;;;5090355;28;20038;-82
2022/02/09 01:38:51;;;;;;;2.33;1.85;;;10.70;77.70;;;;;;5081737;28;20062;-82
2022/02/09 01:44:28;;;;;;;4.53;2.60;;;10.70;77.70;;;;;;5088757;28;20039;-83
2022/02/09 01:51:12;;;;;;;5.25;3.28;;;10.70;77.60;;;;;;5089712;28;20400;-83
2022/02/09 01:57:52;;;;;;;4.65;3.60;;;10.70;77.90;;;;;;5083154;28;20031;-83
2022/02/09 02:00:18;;;;;;;4.97;3.90;;;10.70;77.90;;;;;;5088915;28;20024;-83
2022/02/09 02:02:44;;;;;;;5.75;4.40;;;10.70;77.90;;;;;;5089306;28;20051;-84
2022/02/09 02:05:09;;;;;;;4.65;3.47;;;10.70;78.00;;;;;;5082457;28;20016;-83
2022/02/09 02:07:49;;;;;;;4.63;3.75;;;10.70;78.00;;;;;;5089106;28;20035;-83
2022/02/09 02:10:18;;;;;;;4.35;3.70;;;10.70;78.10;;;;;;5087000;28;20131;-83
2022/02/09 02:13:13;;;;;;;5.72;4.28;;;10.70;78.20;;;;;;5088042;28;20122;-82
2022/02/09 02:18:24;;;;;;;4.18;3.67;;;10.70;78.30;;;;;;5082377;28;20051;-83
2022/02/09 02:21:12;;;;;;;4.18;3.78;;;10.70;78.40;;;;;;5088166;28;20025;-82
2022/02/09 02:34:44;;;;;;;5.13;4.50;;;10.70;79.10;;;;;;5087708;28;20062;-82
2022/02/09 02:37:23;;;;;;;6.68;5.88;;;10.60;79.30;;;;;;5092434;28;20027;-82
2022/02/09 02:58:29;;;;;;;4.93;4.43;;;10.60;80.20;;;;;;5091179;28;20036;-83
2022/02/09 03:09:33;;;;;;;4.72;4.22;;;10.60;80.40;;;;;;5092561;28;20086;-84
2022/02/09 03:12:12;;;;;;;4.97;4.45;;;10.60;80.60;;;;;;5086047;28;20035;-83
2022/02/09 03:14:47;;;;;;;4.72;3.75;;;10.50;80.70;;;;;;5086376;28;20056;-83
2022/02/09 03:17:18;;;;;;;5.18;3.63;;;10.50;80.70;;;;;;5088544;28;20694;-83
2022/02/09 03:57:11;;;;;;;6.22;4.63;;;10.50;81.70;;;;;;5045066;28;20075;-80
2022/02/09 03:59:36;;;;;;;5.97;4.50;;;10.40;81.80;;;;;;5051443;28;20132;-81
2022/02/09 04:02:03;;;;;;;6.18;5.57;;;10.40;82.00;;;;;;5076879;28;20114;-81
2022/02/09 04:04:29;;;;;;;5.32;4.70;;;10.40;82.00;;;;;;5089303;28;20032;-81
2022/02/09 04:06:55;;;;;;;5.50;4.32;;;10.40;82.00;;;;;;5089330;28;20023;-81
2022/02/09 04:09:26;;;;;;;6.18;5.28;;;10.40;82.10;;;;;;5087780;28;20024;-81
2022/02/09 04:15:01;;;;;;;5.40;4.70;;;10.40;82.30;;;;;;5044804;28;20079;-82
2022/02/09 04:17:35;;;;;;;6.03;5.43;;;10.40;82.30;;;;;;5084303;28;20038;-82
2022/02/09 04:36:31;;;;;;;7.78;6.72;;;10.30;83.30;;;;;;5091034;28;20540;-82
2022/02/09 04:39:08;;;;;;;6.78;5.97;;;10.20;83.60;;;;;;5089457;28;20076;-82
2022/02/09 04:44:18;;;;;;;6.57;5.47;;;10.30;83.80;;;;;;5089840;28;20028;-82
2022/02/09 04:47:05;;;;;;;6.72;5.80;;;10.30;83.80;;;;;;5089697;28;20024;-82
2022/02/09 04:53:23;;;;;;;7.95;7.15;;;10.20;84.30;;;;;;5091239;28;20176;-83
2022/02/09 04:58:00;;;;;;;6.32;5.70;;;10.10;84.80;;;;;;5082136;28;20093;-82
2022/02/09 05:27:48;;;;;;;7.65;6.85;;;10.00;86.00;;;;;;5053301;28;20574;-82
2022/02/09 05:30:14;;;;;;;8.82;7.93;;;10.10;86.10;;;;;;5047896;28;20039;-82
2022/02/09 05:32:40;;;;;;;8.13;7.28;;;10.10;86.00;;;;;;5075106;28;20036;-83
2022/02/09 05:35:06;;;;;;;6.20;5.60;;;10.10;86.00;;;;;;5089211;28;20039;-83
2022/02/09 05:37:31;;;;;;;8.00;7.20;;;10.10;85.90;;;;;;5089019;28;20119;-82
2022/02/09 05:39:57;;;;;;;8.75;7.85;;;10.10;86.00;;;;;;5089568;28;20131;-83
2022/02/09 05:42:22;;;;;;;9.57;8.57;;;10.10;86.10;;;;;;5087899;28;20031;-82
2022/02/09 05:44:48;;;;;;;7.97;7.18;;;10.00;86.10;;;;;;5087960;28;20030;-81
2022/02/09 05:55:38;;;;;;;8.63;7.72;;;10.00;86.40;;;;;;5086205;28;20066;-83
2022/02/09 05:58:11;;;;;;;9.60;8.60;;;10.00;86.50;;;;;;5087142;28;20027;-80
2022/02/09 06:00:40;;;;;;;9.13;8.23;;;10.00;86.50;;;;;;5085276;28;20378;-81
2022/02/09 06:03:05;;;;;;;9.10;8.20;;;10.00;86.50;;;;;;5088549;28;20386;-84
2022/02/09 06:05:31;;;;;;;7.30;6.60;;;10.00;86.60;;;;;;5088241;28;20028;-76
2022/02/09 06:07:57;;;;;;;9.15;8.25;;;10.00;86.60;;;;;;5083026;28;20029;-75
2022/02/09 06:10:27;;;;;;;7.40;6.70;;;10.00;86.60;;;;;;5091025;28;20020;-76
2022/02/09 06:13:08;;;;;;;7.70;6.90;;;10.00;86.60;;;;;;5087460;28;20039;-76
2022/02/09 06:16:03;;;;;;;9.35;8.45;;;10.00;86.70;;;;;;5082577;28;20028;-77
2022/02/09 06:21:18;;;;;;;8.80;7.90;;;9.90;86.90;;;;;;5100227;28;20085;-77
2022/02/09 06:23:43;;;;;;;7.90;7.10;;;9.90;86.90;;;;;;5095441;28;20620;-77
2022/02/09 06:26:09;;;;;;;11.13;10.02;;;9.90;86.90;;;;;;5086512;28;20043;-76
2022/02/09 06:28:34;;;;;;;11.30;10.15;;;9.90;86.90;;;;;;5086620;28;20050;-78
2022/02/09 06:31:00;;;;;;;10.25;9.25;;;9.90;87.00;;;;;;5094298;28;20024;-79
2022/02/09 06:33:26;;;;;;;9.23;8.30;;;9.90;87.00;;;;;;5090944;28;20052;-78
2022/02/09 06:35:54;;;;;;;7.93;7.15;;;9.90;87.00;;;;;;5089600;28;20024;-75
2022/02/09 06:38:20;;;;;;;8.98;8.07;;;9.90;87.00;;;;;;5087728;28;20026;-75
2022/02/09 06:40:51;;;;;;;9.75;8.85;;;9.90;87.10;;;;;;5087725;28;20631;-75
2022/02/09 06:43:17;;;;;;;10.32;9.32;;;9.80;87.20;;;;;;5089848;28;20016;-75
2022/02/09 06:45:43;;;;;;;8.10;7.30;;;9.80;87.40;;;;;;5083065;28;20027;-75
2022/02/09 06:48:17;;;;;;;9.07;8.18;;;9.80;87.50;;;;;;5090564;28;20028;-74
2022/02/09 06:50:48;;;;;;;8.68;7.78;;;9.70;87.50;;;;;;5077675;28;20024;-74
2022/02/09 06:55:51;;;;;;;9.38;8.20;;;9.70;87.60;;;;;;5087316;28;20020;-78
2022/02/09 06:58:43;;;;;;;8.70;7.82;;;9.70;87.60;;;;;;5081305;28;20081;-79
2022/02/09 07:01:07;;;;;;;10.10;9.10;;;9.70;87.60;;;;;;5070323;28;20047;-76
2022/02/09 07:03:33;;;;;;;8.00;7.20;;;9.70;87.60;;;;;;5083220;28;20036;-75
2022/02/09 07:05:59;;;;;;;6.65;6.05;;;9.70;87.70;;;;;;5078754;28;20108;-77
2022/02/09 07:08:24;;;;;;;8.18;7.38;;;9.70;87.50;;;;;;5079036;28;20550;-78
2022/02/09 07:10:50;;;;;;;7.10;6.40;;;9.80;87.50;;;;;;5078121;28;20497;-82
2022/02/09 07:13:15;;;;;;;9.80;8.80;;;9.70;87.50;;;;;;5082824;28;20033;-77
2022/02/09 07:15:46;;;;;;;12.15;10.85;;;9.70;87.60;;;;;;5087506;28;20045;-78
2022/02/09 07:18:13;;;;;;;7.90;7.05;;;9.70;87.70;;;;;;5084363;28;20016;-77
2022/02/09 07:23:36;;;;;;;7.07;6.38;;;9.80;87.70;;;;;;5091134;28;20093;-78
2022/02/09 07:26:50;;;;;;;7.28;6.38;;;9.70;87.50;;;;;;5088824;28;20044;-78
2022/02/09 07:28:48;;;;;;;6.90;6.20;;;9.80;87.50;;;;;;5078632;28;20539;-77
2022/02/09 07:31:14;;;;;;;6.70;6.00;;;9.70;87.50;;;;;;5091896;28;20117;-77
2022/02/09 07:33:44;;;;;;;7.35;5.72;;;9.80;87.50;;;;;;5088289;28;20147;-78
2022/02/09 07:36:11;;;;;;;6.63;6.03;;;9.80;87.50;;;;;;5079279;28;20028;-76
2022/02/09 07:38:39;;;;;;;6.43;5.80;;;9.80;87.40;;;;;;5085828;28;20016;-76
2022/02/09 07:41:05;;;;;;;8.00;7.20;;;9.80;87.30;;;;;;5089197;28;20031;-76
2022/02/09 07:44:32;;;;;;;6.15;5.55;;;9.80;87.40;;;;;;5085448;28;20020;-77
2022/02/09 07:46:39;;;;;;;6.70;6.00;;;9.80;87.40;;;;;;5080993;28;20027;-79
2022/02/09 07:49:12;;;;;;;8.63;7.72;;;9.80;87.30;;;;;;5088766;28;20161;-78
2022/02/09 07:52:23;;;;;;;7.28;6.57;;;9.80;87.40;;;;;;5085908;28;20062;-74
2022/02/09 07:54:28;;;;;;;8.68;7.63;;;9.70;87.30;;;;;;5081174;28;20521;-77
2022/02/09 07:56:54;;;;;;;7.78;6.97;;;9.70;87.40;;;;;;5091162;28;20385;-78
2022/02/09 07:59:20;;;;;;;6.90;5.95;;;9.70;87.50;;;;;;5082622;28;20019;-80
2022/02/09 08:01:46;;;;;;;8.50;7.65;;;9.70;87.60;;;;;;5085229;28;20029;-80
2022/02/09 08:04:12;;;;;;;6.68;6.03;;;9.70;87.60;;;;;;5077885;28;20062;-78
2022/02/09 08:06:39;;;;;;;7.82;7.03;;;9.60;87.70;;;;;;5083872;28;20019;-79
2022/02/09 08:09:12;;;;;;;6.75;5.63;;;9.70;87.70;;;;;;5085376;28;20276;-78
2022/02/09 08:26:12;;;;;;;6.72;6.05;;;9.70;87.70;;;;;;5086771;28;20418;-78
2022/02/09 08:28:33;;;;;;;8.35;7.28;;;9.70;87.80;;;;;;5082356;28;20093;-78
2022/02/09 08:31:22;;;;;;;7.63;6.80;;;9.60;87.80;;;;;;5082995;28;20020;-78
2022/02/09 08:33:46;;;;;;;9.43;8.48;;;9.60;87.90;;;;;;5079848;28;20044;-78
2022/02/09 08:36:13;;;;;;;6.63;5.88;;;9.60;88.00;;;;;;5085564;28;20024;-78
2022/02/09 08:38:42;;;;;;;8.30;7.40;;;9.60;88.10;;;;;;5085763;28;20436;-78
2022/02/09 08:41:07;;;;;;;8.27;7.10;;;9.50;88.20;;;;;;5083954;28;20016;-78
2022/02/09 08:43:33;;;;;;;8.15;7.32;;;9.60;88.30;;;;;;5085140;28;20031;-79
2022/02/09 08:45:59;;;;;;;6.57;5.88;;;9.50;88.90;;;;;;5083187;28;20027;-78
2022/02/09 08:48:24;;;;;;;7.95;7.05;;;9.60;88.40;;;;;;5078449;28;20028;-78
2022/02/09 08:50:52;;;;;;;9.80;8.80;;;9.60;88.40;;;;;;5081914;28;20028;-78
2022/02/09 08:53:19;;;;;;;11.75;9.82;;;9.60;88.40;;;;;;5084813;28;20024;-76
2022/02/09 08:55:46;;;;;;;8.48;7.57;;;9.60;88.50;;;;;;5082161;28;20478;-78
2022/02/09 08:58:15;;;;;;;10.70;8.63;;;9.50;88.50;;;;;;5082219;28;20051;-78
2022/02/09 09:00:41;;;;;;;8.95;8.05;;;9.60;88.60;;;;;;5082098;28;20028;-78
2022/02/09 09:03:21;;;;;;;6.22;5.60;;;9.60;88.50;;;;;;5080396;28;20061;-78
2022/02/09 09:05:48;;;;;;;9.40;8.40;;;9.70;88.50;;;;;;5081121;28;20466;-77
2022/02/09 09:11:01;;;;;;;9.10;8.20;;;9.70;88.50;;;;;;5084057;28;20115;-79
2022/02/09 10:03:11;;;;;;;10.00;8.90;;;9.80;88.60;;;;;;5029609;28;20082;-76
2022/02/09 10:33:58;;;;;;;9.90;8.52;;;10.00;88.20;;;;;;5082785;28;20122;-78
2022/02/09 10:36:23;;;;;;;8.30;6.90;;;10.00;88.10;;;;;;5079869;28;20575;-76
2022/02/09 10:39:03;;;;;;;10.23;7.93;;;10.00;88.00;;;;;;5078848;28;20104;-77
2022/02/09 10:41:34;;;;;;;9.50;8.50;;;10.00;87.90;;;;;;5077645;28;20031;-76
2022/02/09 10:44:06;;;;;;;10.33;8.23;;;10.00;87.90;;;;;;5076603;28;20505;-78
2022/02/09 10:46:34;;;;;;;;;;;10.00;87.90;;;;;;5074652;28;20020;-78
2022/02/09 10:49:01;;;;;;;8.07;6.95;;;10.00;87.80;;;;;;5078181;28;20005;-77
2022/02/09 10:51:38;;;;;;;9.38;7.93;;;10.00;87.90;;;;;;5081442;28;20031;-77
2022/02/09 10:54:07;;;;;;;9.80;7.72;;;10.00;88.20;;;;;;5081303;28;20636;-78
2022/02/09 10:56:35;;;;;;;9.18;7.72;;;10.00;87.80;;;;;;5080945;28;20382;-77
2022/02/09 10:59:04;;;;;;;9.20;7.78;;;10.10;87.90;;;;;;5082379;28;20070;-77
2022/02/09 11:01:30;;;;;;;13.10;11.05;;;10.10;87.70;;;;;;5078943;28;20020;-78
2022/02/09 11:03:57;;;;;;;9.13;7.93;;;10.00;87.60;;;;;;5082447;28;20469;-78
2022/02/09 11:06:50;;;;;;;9.82;8.43;;;10.10;88.30;;;;;;5080472;28;20036;-78
2022/02/09 11:09:18;;;;;;;7.55;6.68;;;10.10;87.60;;;;;;5080060;28;20044;-77
2022/02/09 11:11:44;;;;;;;10.52;9.43;;;10.10;87.50;;;;;;5080506;28;20039;-77
2022/02/09 11:14:14;;;;;;;11.35;8.60;;;10.10;87.40;;;;;;5085190;28;20046;-78
2022/02/09 11:16:47;;;;;;;9.68;7.65;;;10.20;87.40;;;;;;5076887;28;20499;-78
2022/02/09 11:19:15;;;;;;;11.25;9.65;;;10.20;87.30;;;;;;5081462;28;20540;-77
2022/02/09 11:21:43;;;;;;;11.30;9.50;;;10.20;87.30;;;;;;5081591;28;20042;-77
2022/02/09 11:24:25;;;;;;;10.25;8.95;;;10.20;87.20;;;;;;5088392;28;20016;-77
2022/02/09 11:27:11;;;;;;;11.75;10.05;;;10.20;87.10;;;;;;5081981;28;20047;-77
2022/02/09 11:29:57;;;;;;;9.73;8.73;;;10.30;87.10;;;;;;5084495;28;20024;-77
2022/02/09 11:32:31;;;;;;;7.97;6.90;;;10.30;87.00;;;;;;5090672;28;20047;-77
2022/02/09 11:35:00;;;;;;;9.13;8.00;;;10.30;87.00;;;;;;5090029;28;20043;-78
2022/02/09 11:37:41;;;;;;;12.63;10.65;;;10.40;86.90;;;;;;5082137;28;20024;-78
2022/02/09 11:40:33;;;;;;;10.45;8.50;;;10.40;86.80;;;;;;5084787;28;20032;-77
2022/02/09 11:43:18;;;;;;;11.57;9.88;;;10.40;86.80;;;;;;5088739;28;20094;-79
2022/02/09 12:11:11;;;;;;;7.93;7.13;;;10.60;85.80;;;;;;5089746;28;20047;-77
2022/02/09 12:14:12;;;;;;;9.05;7.30;;;10.60;85.80;;;;;;5083793;28;20036;-77
2022/02/09 12:19:12;;;;;;;8.40;7.38;;;10.70;85.60;;;;;;5086085;28;20115;-77
2022/02/09 12:24:23;;;;;;;8.45;7.40;;;10.70;85.50;;;;;;5082237;28;20024;-78
2022/02/09 12:27:02;;;;;;;8.32;7.20;;;10.70;85.40;;;;;;5081356;28;20355;-77
2022/02/09 12:29:37;;;;;;;10.02;7.75;;;10.70;85.40;;;;;;5084722;28;20458;-77
2022/02/09 12:32:23;;;;;;;8.63;7.72;;;10.60;85.30;;;;;;5080043;28;20105;-77
2022/02/09 12:35:09;;;;;;;8.10;6.88;;;10.70;85.40;;;;;;5069602;28;20036;-77
2022/02/09 12:37:46;;;;;;;6.90;6.05;;;10.70;85.30;;;;;;5087016;28;20024;-77
2022/02/09 12:40:23;;;;;;;7.90;6.82;;;10.70;85.30;;;;;;5085983;28;20028;-79
2022/02/09 12:42:50;;;;;;;9.00;6.93;;;10.70;85.20;;;;;;5080107;28;20093;-77
2022/02/09 12:45:18;;;;;;;9.95;8.95;;;10.70;85.10;;;;;;5084278;28;20055;-78
2022/02/09 12:47:45;;;;;;;9.63;8.13;;;10.70;85.10;;;;;;5074591;28;20031;-78
2022/02/09 12:50:12;;;;;;;9.82;8.82;;;10.70;85.00;;;;;;5091453;28;20390;-77
2022/02/09 12:52:40;;;;;;;9.20;7.78;;;10.70;84.90;;;;;;5084137;28;20119;-75
2022/02/09 12:55:24;;;;;;;8.40;7.03;;;10.70;84.90;;;;;;5076839;28;20039;-77
2022/02/09 12:57:57;;;;;;;10.48;9.30;;;10.80;84.90;;;;;;5087155;28;20028;-79
2022/02/09 13:00:27;;;;;;;8.48;6.80;;;10.80;84.60;;;;;;5089128;28;20024;-79
2022/02/09 13:02:55;;;;;;;10.52;8.43;;;10.80;84.70;;;;;;5085497;28;20020;-79
2022/02/09 13:05:21;;;;;;;9.95;8.75;;;10.80;84.60;;;;;;5084125;28;20016;-75
2022/02/09 13:08:17;;;;;;;10.23;9.15;;;10.80;84.40;;;;;;5088378;28;20023;-76
2022/02/09 13:10:43;;;;;;;7.63;6.82;;;10.80;84.40;;;;;;5086236;28;20069;-75
2022/02/09 13:13:14;;;;;;;10.23;8.27;;;10.80;84.40;;;;;;5081317;28;20066;-77
2022/02/09 13:16:33;;;;;;;9.27;7.53;;;10.80;84.30;;;;;;5085151;28;20059;-77
2022/02/09 14:12:29;;;;;;;8.00;6.55;;;10.70;84.00;;;;;;5082434;28;20127;-79
2022/02/09 14:15:24;;;;;;;10.20;7.38;;;10.80;84.00;;;;;;5083281;28;20040;-79
2022/02/09 14:18:13;;;;;;;7.32;6.22;;;10.80;84.00;;;;;;5076763;28;20375;-77
2022/02/09 14:51:19;;;;;;;8.18;5.93;;;10.90;83.30;;;;;;5088114;28;20032;-77
2022/02/09 14:53:40;;;;;;;7.60;5.75;;;11.00;83.30;;;;;;5093777;28;20044;-77
2022/02/09 14:56:18;;;;;;;6.43;5.45;;;11.00;83.30;;;;;;5093040;28;20031;-77
2022/02/09 14:58:46;;;;;;;9.52;8.10;;;11.00;83.30;;;;;;5085666;28;20012;-78
2022/02/09 15:01:18;;;;;;;8.77;7.43;;;11.00;83.20;;;;;;5091184;28;20464;-75
2022/02/09 15:04:01;;;;;;;8.20;7.10;;;11.00;83.20;;;;;;5095541;28;20051;-75
2022/02/09 15:06:46;;;;;;;7.82;6.75;;;11.00;83.20;;;;;;5097279;28;20023;-77
2022/02/09 15:09:41;;;;;;;8.35;6.13;;;11.00;83.20;;;;;;5093529;28;20043;-76
2022/02/09 15:12:04;;;;;;;7.38;6.45;;;11.00;83.20;;;;;;5096541;28;20034;-77
2022/02/09 15:15:04;;;;;;;6.80;5.85;;;11.00;83.30;;;;;;5088607;28;20036;-77
2022/02/09 15:17:58;;;;;;;9.00;7.13;;;11.00;83.30;;;;;;5084752;28;20034;-76
2022/02/09 15:20:46;;;;;;;7.78;6.50;;;11.00;83.20;;;;;;5088621;28;20027;-76
2022/02/09 15:23:11;;;;;;;7.40;5.38;;;11.00;83.30;;;;;;5086999;28;20028;-76
2022/02/09 15:25:37;;;;;;;8.02;6.93;;;11.00;83.30;;;;;;5091314;28;20031;-75
2022/02/09 15:28:04;;;;;;;7.75;6.32;;;11.00;83.30;;;;;;5089456;28;20413;-76
2022/02/09 15:30:37;;;;;;;6.75;5.00;;;11.00;83.30;;;;;;5090367;28;20085;-75
2022/02/09 15:33:04;;;;;;;7.28;6.43;;;11.10;83.40;;;;;;5090350;28;20023;-76
2022/02/09 15:35:37;;;;;;;8.30;7.07;;;11.10;83.30;;;;;;5088134;28;20043;-77
2022/02/09 15:38:10;;;;;;;8.05;6.55;;;11.10;83.20;;;;;;5092015;28;20165;-77
2022/02/09 15:43:42;;;;;;;8.40;6.75;;;11.10;83.10;;;;;;5087779;28;20028;-75
2022/02/09 15:56:17;;;;;;;7.32;6.30;;;11.00;83.30;;;;;;5083748;28;20535;-78
2022/02/09 16:05:58;;;;;;;10.05;7.28;;;10.80;83.90;;;;;;5089393;28;20027;-76
2022/02/09 16:11:21;;;;;;;6.72;5.65;;;10.80;84.20;;;;;;5080055;28;20459;-77
2022/02/09 16:24:55;;;;;;;6.55;5.63;;;10.70;84.70;;;;;;5080801;28;20115;-78
2022/02/09 16:38:12;;;;;;;9.38;7.10;;;10.70;85.00;;;;;;5089679;28;20029;-78
2022/02/09 16:46:20;;;;;;;10.90;8.55;;;10.60;85.50;;;;;;5089282;28;20493;-76
2022/02/09 16:48:58;;;;;;;9.48;6.78;;;10.60;85.70;;;;;;5085656;28;20027;-76
2022/02/09 16:51:25;;;;;;;9.93;8.10;;;10.60;85.70;;;;;;5079249;28;20020;-77
2022/02/09 17:20:41;;;;;;;11.32;8.05;;;10.50;86.20;;;;;;5086349;28;20085;-75
2022/02/09 17:23:07;;;;;;;7.85;6.53;;;10.50;86.30;;;;;;5086846;28;20027;-75
2022/02/09 17:25:32;;;;;;;8.40;6.80;;;10.50;86.40;;;;;;5077810;28;20030;-76
2022/02/09 17:27:58;;;;;;;12.82;10.38;;;10.50;86.40;;;;;;5083170;28;20485;-77
2022/02/09 17:33:10;;;;;;;11.43;9.13;;;10.50;86.50;;;;;;5078530;28;20024;-78
2022/02/09 17:35:44;;;;;;;10.70;7.80;;;10.50;86.50;;;;;;5078800;28;20453;-78
2022/02/09 17:38:27;;;;;;;10.57;8.50;;;10.50;86.60;;;;;;5076160;28;20073;-76
2022/02/09 17:57:09;;;;;;;9.20;8.07;;;10.50;86.90;;;;;;5090057;28;20081;-78
2022/02/09 17:59:43;;;;;;;9.98;7.85;;;10.50;86.90;;;;;;5082703;28;20040;-78
2022/02/09 18:02:08;;;;;;;11.85;9.80;;;10.50;86.80;;;;;;5086244;28;20026;-78
2022/02/09 18:04:34;;;;;;;12.50;10.15;;;10.50;86.80;;;;;;5085617;28;20551;-77
2022/02/09 18:07:05;;;;;;;11.55;9.48;;;10.50;86.90;;;;;;5086149;28;20096;-78
2022/02/09 18:09:38;;;;;;;11.50;9.25;;;10.40;86.80;;;;;;5081529;28;20023;-78
2022/02/09 18:12:20;;;;;;;8.35;6.97;;;10.50;86.90;;;;;;5086824;28;20092;-77
2022/02/09 18:31:13;;;;;;;11.15;9.13;;;10.50;86.80;;;;;;5073588;28;20671;-79
2022/02/09 18:37:46;;;;;;;10.73;8.50;;;10.50;86.80;;;;;;5069820;28;20066;-78
2022/02/09 18:44:43;;;;;;;10.70;8.25;;;10.60;86.70;;;;;;5084474;28;20040;-78
2022/02/09 18:47:29;;;;;;;12.02;9.05;;;10.60;86.80;;;;;;5078589;28;20524;-78
2022/02/09 18:59:00;;;;;;;11.10;8.77;;;10.70;86.70;;;;;;5087995;28;20027;-80
2022/02/09 19:03:40;;;;;;;11.05;8.90;;;10.70;87.30;;;;;;5083182;28;20463;-79
2022/02/09 19:06:18;;;;;;;9.50;7.25;;;10.70;86.70;;;;;;5079290;28;20701;-79
2022/02/09 19:08:59;;;;;;;13.70;9.35;;;10.70;86.60;;;;;;5081007;28;20023;-79
2022/02/09 19:16:56;;;;;;;13.20;9.95;;;10.70;86.60;;;;;;5082637;28;20021;-78
2022/02/09 19:29:57;;;;;;;12.20;8.90;;;10.70;86.60;;;;;;5088414;28;20115;-79
2022/02/09 19:33:09;;;;;;;11.88;9.18;;;10.70;86.50;;;;;;5080088;28;20027;-79
2022/02/09 19:48:58;;;;;;;10.93;8.77;;;10.70;86.50;;;;;;5080300;28;20036;-79
2022/02/09 19:54:10;;;;;;;20.60;14.93;;;10.60;86.50;;;;;;5081676;28;20144;-81
2022/02/09 19:56:38;;;;;;;17.08;13.43;;;10.50;86.60;;;;;;5082172;28;20016;-80
2022/02/09 19:59:14;;;;;;;14.32;11.15;;;10.40;86.70;;;;;;5086250;28;20050;-80
2022/02/09 20:01:40;;;;;;;16.02;12.57;;;10.50;86.80;;;;;;5078727;28;20059;-78
2022/02/09 20:04:07;;;;;;;12.75;10.27;;;10.50;86.80;;;;;;5081859;28;20158;-78
2022/02/09 20:06:34;;;;;;;12.70;10.00;;;10.50;86.80;;;;;;5081934;28;20031;-77
2022/02/09 20:08:59;;;;;;;15.75;11.05;;;10.50;86.80;;;;;;5081502;28;20070;-78
2022/02/09 20:11:25;;;;;;;12.85;9.85;;;10.50;86.80;;;;;;5078227;28;20024;-78
2022/02/09 20:13:52;;;;;;;11.90;8.85;;;10.50;86.80;;;;;;5088141;28;20746;-78
2022/02/09 20:16:20;;;;;;;12.85;10.25;;;10.50;86.90;;;;;;5087868;28;20661;-78
2022/02/09 20:18:46;;;;;;;12.60;9.82;;;10.50;86.80;;;;;;5090307;28;20051;-78
2022/02/09 20:21:11;;;;;;;15.73;11.35;;;10.60;86.80;;;;;;5088065;28;20102;-78
2022/02/09 20:23:37;;;;;;;14.25;9.82;;;10.50;86.80;;;;;;5084132;28;20114;-78
2022/02/09 20:26:04;;;;;;;14.45;10.95;;;10.60;86.80;;;;;;5084357;28;20482;-79
2022/02/09 20:28:30;;;;;;;12.25;9.13;;;10.50;86.70;;;;;;5089015;28;20040;-79
2022/02/09 20:31:01;;;;;;;12.95;9.68;;;10.60;86.80;;;;;;5082937;28;20032;-79
2022/02/09 20:33:34;;;;;;;11.80;8.57;;;10.60;86.80;;;;;;5090153;28;20522;-78
2022/02/09 20:36:02;;;;;;;15.45;11.18;;;10.60;86.80;;;;;;5080329;28;20040;-79
2022/02/09 20:38:28;;;;;;;13.10;9.50;;;10.50;86.70;;;;;;5080386;28;20031;-78
2022/02/09 20:40:59;;;;;;;13.02;8.68;;;10.50;86.90;;;;;;5081768;28;20123;-79
2022/02/09 20:43:25;;;;;;;13.88;10.13;;;10.50;86.90;;;;;;5088608;28;20062;-78
2022/02/09 20:45:55;;;;;;;14.05;9.80;;;10.60;86.90;;;;;;5085252;28;20086;-78
2022/02/09 20:48:25;;;;;;;16.33;11.73;;;10.60;86.80;;;;;;5082841;28;20023;-78
2022/02/09 20:50:51;;;;;;;12.70;8.75;;;10.50;86.80;;;;;;5085585;28;20470;-78
2022/02/09 20:53:18;;;;;;;11.18;8.85;;;10.50;86.80;;;;;;5079240;28;20029;-78
2022/02/09 20:55:46;;;;;;;11.95;9.27;;;10.50;86.80;;;;;;5083534;28;20055;-79
2022/02/09 20:58:12;;;;;;;12.63;9.10;;;10.50;86.80;;;;;;5086004;28;20013;-78
2022/02/09 21:00:44;;;;;;;11.57;8.75;;;10.50;86.70;;;;;;5082950;28;20024;-78
2022/02/09 21:03:30;;;;;;;14.93;9.10;;;10.50;86.80;;;;;;5088760;28;20015;-78
2022/02/09 21:14:13;;;;;;;13.07;9.80;;;10.60;86.60;;;;;;5084619;28;20036;-78
2022/02/09 21:19:31;;;;;;;11.82;9.10;;;10.50;86.50;;;;;;5089143;28;20027;-78
2022/02/09 21:58:59;;;;;;;15.23;10.68;;;10.50;86.70;;;;;;5084368;28;20024;-75
2022/02/09 22:16:09;;;;;;;21.13;14.02;;;10.50;86.50;;;;;;5039371;28;20068;-73
2022/02/09 22:28:46;;;;;;;16.90;11.88;;;10.50;86.50;;;;;;5089417;28;20028;-74
2022/02/09 22:31:31;;;;;;;17.07;11.37;;;10.60;86.60;;;;;;5088616;28;20020;-77
2022/02/09 22:48:01;;;;;;;19.95;14.70;;;10.50;86.40;;;;;;5090631;28;20050;-91
2022/02/09 22:55:45;;;;;;;17.27;12.63;;;10.50;86.50;;;;;;5091889;28;20047;-91
2022/02/09 22:58:12;;;;;;;17.23;12.38;;;10.50;86.40;;;;;;5090946;28;20012;-94
2022/02/09 23:01:08;;;;;;;18.10;12.85;;;10.50;86.40;;;;;;5092673;28;20024;-92
2022/02/09 23:03:58;;;;;;;16.90;11.90;;;10.50;86.40;;;;;;5095141;28;20136;-90
2022/02/09 23:09:17;;;;;;;25.48;17.95;;;10.50;86.40;;;;;;5100182;28;20383;-91
